Time;durP1;ratioP1;P1;durP2;ratioP2;P2;SDS_P1;SDS_P2;PMS_P1;PMS_P2;Temp;Humidity;BMP_temperature;BMP_pressure;BME280_temperature;BME280_humidity;BME280_pressure;Samples;Min_cycle;Max_cycle;Signal;HPM_P1;HPM_P2
2021/04/04 00:00:22;;;;;;;9.85;3.97;;;10.50;43.50;;;;;;1486882;40;20039;-56
2021/04/04 00:01:43;;;;;;;7.80;3.40;;;10.50;43.50;;;;;;1492459;39;20047;-57
2021/04/04 00:03:05;;;;;;;9.45;3.72;;;10.50;43.90;;;;;;1492628;39;20248;-57
2021/04/04 00:04:26;;;;;;;9.32;3.40;;;10.50;43.50;;;;;;1487390;40;20056;-56
2021/04/04 00:05:47;;;;;;;8.10;3.95;;;10.50;43.50;;;;;;1483986;39;20039;-57
2021/04/04 00:07:08;;;;;;;11.15;3.45;;;10.50;43.50;;;;;;1487134;39;20040;-57
2021/04/04 00:08:28;;;;;;;8.00;3.75;;;10.40;43.60;;;;;;1484166;39;20400;-57
2021/04/04 00:09:49;;;;;;;9.88;3.70;;;10.40;43.50;;;;;;1489204;39;20016;-56
2021/04/04 00:11:10;;;;;;;9.15;3.55;;;10.40;43.60;;;;;;1485694;39;20032;-59
2021/04/04 00:12:31;;;;;;;9.52;3.70;;;10.40;43.60;;;;;;1484582;39;20025;-56
2021/04/04 00:13:52;;;;;;;10.45;4.07;;;10.40;43.70;;;;;;1491563;39;20036;-59
2021/04/04 00:15:15;;;;;;;9.50;3.20;;;10.30;43.60;;;;;;1490023;39;20113;-57
2021/04/04 00:16:36;;;;;;;10.60;3.80;;;10.40;43.80;;;;;;1485558;39;20069;-56
2021/04/04 00:17:57;;;;;;;8.98;3.45;;;10.30;43.70;;;;;;1486712;39;20088;-55
2021/04/04 00:19:18;;;;;;;11.13;3.75;;;10.30;43.80;;;;;;1487723;39;20329;-56
2021/04/04 00:20:39;;;;;;;9.13;3.80;;;10.30;43.80;;;;;;1487919;39;20032;-57
2021/04/04 00:22:00;;;;;;;10.00;3.88;;;10.30;43.80;;;;;;1487796;39;20024;-58
2021/04/04 00:23:22;;;;;;;8.90;3.88;;;10.30;43.90;;;;;;1482707;40;20045;-57
2021/04/04 00:24:42;;;;;;;9.13;3.60;;;10.30;43.90;;;;;;1480863;40;20161;-56
2021/04/04 00:26:04;;;;;;;9.52;3.40;;;10.20;43.90;;;;;;1486387;39;20036;-56
2021/04/04 00:27:25;;;;;;;10.77;4.13;;;10.20;43.90;;;;;;1487100;40;20027;-56
2021/04/04 00:28:46;;;;;;;6.00;3.58;;;10.20;43.90;;;;;;1486530;39;20065;-57
2021/04/04 00:30:15;;;;;;;10.95;4.03;;;10.20;43.90;;;;;;1490201;39;20695;-57
2021/04/04 00:31:37;;;;;;;7.07;3.37;;;10.20;44.20;;;;;;1485159;39;20128;-57
2021/04/04 00:32:57;;;;;;;7.93;3.35;;;10.20;44.00;;;;;;1489230;39;20324;-54
2021/04/04 00:34:19;;;;;;;8.50;3.90;;;10.20;44.00;;;;;;1484373;40;20377;-57
2021/04/04 00:35:39;;;;;;;8.65;3.60;;;10.20;44.10;;;;;;1484097;39;20673;-54
2021/04/04 00:37:00;;;;;;;8.93;3.75;;;10.20;44.10;;;;;;1486623;40;20081;-55
2021/04/04 00:38:21;;;;;;;9.63;3.72;;;10.10;44.10;;;;;;1490606;39;20085;-57
2021/04/04 00:39:42;;;;;;;8.48;3.30;;;10.10;44.10;;;;;;1486713;39;20660;-58
2021/04/04 00:41:03;;;;;;;9.30;3.70;;;10.10;44.10;;;;;;1485685;40;20048;-58
2021/04/04 00:42:24;;;;;;;10.13;4.10;;;10.10;44.10;;;;;;1490033;39;20079;-57
2021/04/04 00:43:45;;;;;;;11.70;3.63;;;10.10;44.20;;;;;;1489079;39;20036;-58
2021/04/04 00:45:19;;;;;;;8.88;3.85;;;10.10;44.20;;;;;;1489526;39;20043;-57
2021/04/04 00:46:40;;;;;;;8.80;4.15;;;10.10;45.00;;;;;;1487662;39;20349;-56
2021/04/04 00:48:02;;;;;;;10.07;3.70;;;10.00;44.10;;;;;;1489669;39;20367;-57
2021/04/04 00:49:23;;;;;;;9.70;4.07;;;10.00;44.20;;;;;;1494338;39;20356;-56
2021/04/04 00:50:45;;;;;;;10.88;4.28;;;10.00;44.40;;;;;;1485491;39;20043;-56
2021/04/04 00:52:06;;;;;;;15.60;4.32;;;10.00;44.50;;;;;;1487496;39;20043;-59
2021/04/04 00:53:27;;;;;;;9.18;3.80;;;10.00;44.50;;;;;;1494605;39;20028;-56
2021/04/04 00:54:47;;;;;;;8.25;3.88;;;10.00;44.40;;;;;;1490675;39;20063;-56
2021/04/04 00:56:10;;;;;;;13.30;3.92;;;10.00;44.40;;;;;;1488691;39;20071;-56
2021/04/04 00:57:32;;;;;;;10.77;4.00;;;10.00;44.50;;;;;;1487449;39;20028;-58
2021/04/04 00:58:54;;;;;;;8.07;3.75;;;9.90;44.60;;;;;;1492087;39;20246;-57
2021/04/04 01:00:16;;;;;;;9.68;3.55;;;9.90;44.60;;;;;;1493609;39;20635;-56
2021/04/04 01:01:37;;;;;;;6.95;3.70;;;9.90;44.60;;;;;;1492202;39;20168;-57
2021/04/04 01:02:58;;;;;;;8.18;3.72;;;9.90;44.60;;;;;;1489643;39;20052;-55
2021/04/04 01:04:19;;;;;;;6.90;3.30;;;9.90;44.60;;;;;;1486329;39;20316;-57
2021/04/04 01:05:44;;;;;;;8.32;3.75;;;9.90;44.60;;;;;;1488912;39;20043;-57
2021/04/04 01:07:05;;;;;;;12.23;3.85;;;10.00;44.70;;;;;;1493654;39;20024;-58
2021/04/04 01:08:26;;;;;;;6.82;3.53;;;10.00;44.70;;;;;;1491411;39;20044;-55
2021/04/04 01:09:48;;;;;;;9.68;3.50;;;9.90;44.60;;;;;;1491640;39;20280;-56
2021/04/04 01:11:11;;;;;;;13.48;4.22;;;9.90;44.70;;;;;;1493822;39;20038;-56
2021/04/04 01:13:10;;;;;;;9.93;4.10;;;9.90;44.70;;;;;;1488962;39;20384;-56
2021/04/04 01:14:35;;;;;;;11.68;3.90;;;9.90;45.00;;;;;;1494723;39;20039;-57
2021/04/04 01:16:14;;;;;;;10.55;4.05;;;10.00;44.80;;;;;;1487875;39;20058;-56
2021/04/04 01:17:37;;;;;;;11.23;3.75;;;9.90;44.80;;;;;;1485268;40;20254;-57
2021/04/04 01:19:36;;;;;;;12.40;4.13;;;10.00;44.60;;;;;;1484959;40;20024;-56
2021/04/04 01:21:01;;;;;;;9.45;3.90;;;9.90;45.00;;;;;;1476715;40;20065;-58
2021/04/04 01:22:41;;;;;;;11.02;4.10;;;9.90;44.50;;;;;;1482690;40;20360;-56
2021/04/04 01:24:25;;;;;;;13.20;4.03;;;9.90;44.80;;;;;;1483642;40;20056;-57
2021/04/04 01:26:01;;;;;;;8.73;4.00;;;9.90;44.60;;;;;;1482490;40;20588;-57
2021/04/04 01:27:49;;;;;;;9.75;3.50;;;9.90;44.60;;;;;;1486889;40;20445;-57
2021/04/04 01:29:10;;;;;;;11.90;4.03;;;9.90;44.80;;;;;;1483234;40;20357;-56
2021/04/04 01:30:38;;;;;;;8.15;3.83;;;9.90;44.30;;;;;;1482786;40;20036;-57
2021/04/04 01:31:59;;;;;;;11.48;3.80;;;9.80;44.50;;;;;;1486754;39;20056;-56
2021/04/04 01:33:21;;;;;;;11.15;3.83;;;9.80;44.40;;;;;;1482680;40;20084;-58
2021/04/04 01:34:43;;;;;;;9.85;4.03;;;9.80;44.50;;;;;;1480754;40;20040;-55
2021/04/04 01:36:07;;;;;;;10.27;4.30;;;9.70;44.50;;;;;;1482357;40;20044;-57
2021/04/04 01:37:28;;;;;;;9.13;4.03;;;9.70;44.60;;;;;;1482097;40;20032;-55
2021/04/04 01:38:51;;;;;;;11.88;4.47;;;9.70;44.70;;;;;;1481926;40;20028;-56
2021/04/04 01:40:15;;;;;;;9.95;4.15;;;9.70;45.00;;;;;;1483662;40;20121;-56
2021/04/04 01:41:39;;;;;;;12.05;4.70;;;9.70;45.10;;;;;;1481281;40;20053;-59
2021/04/04 01:43:02;;;;;;;13.73;4.50;;;9.70;45.20;;;;;;1489639;39;20132;-60
2021/04/04 01:44:25;;;;;;;11.90;4.50;;;9.70;45.20;;;;;;1486740;39;20135;-60
2021/04/04 01:45:46;;;;;;;10.65;4.18;;;9.70;45.30;;;;;;1482003;40;20110;-60
2021/04/04 01:47:08;;;;;;;13.05;4.32;;;9.70;45.30;;;;;;1486320;40;20358;-60
2021/04/04 01:48:30;;;;;;;8.10;4.32;;;9.70;45.50;;;;;;1482180;40;20048;-59
2021/04/04 01:49:53;;;;;;;16.20;4.55;;;9.70;45.70;;;;;;1482759;40;20028;-60
2021/04/04 01:51:15;;;;;;;9.52;4.10;;;9.70;45.80;;;;;;1482789;40;20028;-60
2021/04/04 01:52:37;;;;;;;12.18;4.35;;;9.70;45.70;;;;;;1484802;40;20028;-60
2021/04/04 01:54:00;;;;;;;10.27;3.50;;;9.70;45.70;;;;;;1486412;40;20113;-61
2021/04/04 01:55:24;;;;;;;11.65;4.00;;;9.70;45.70;;;;;;1486858;40;20061;-60
2021/04/04 01:56:46;;;;;;;13.40;4.63;;;9.70;45.70;;;;;;1483477;40;20068;-60
2021/04/04 01:58:09;;;;;;;13.13;4.00;;;9.80;46.40;;;;;;1484349;39;20118;-60
2021/04/04 01:59:32;;;;;;;7.60;3.90;;;9.80;46.00;;;;;;1483452;40;20025;-60
2021/04/04 02:00:53;;;;;;;13.38;4.32;;;9.80;46.00;;;;;;1481417;40;20036;-59
2021/04/04 02:02:15;;;;;;;8.48;3.97;;;9.80;46.50;;;;;;1482154;40;20324;-61
2021/04/04 02:03:36;;;;;;;9.35;4.18;;;9.80;46.00;;;;;;1483408;39;20142;-60
2021/04/04 02:04:58;;;;;;;8.05;4.63;;;9.80;45.90;;;;;;1482384;39;20060;-61
2021/04/04 02:06:19;;;;;;;9.45;4.50;;;9.80;46.00;;;;;;1480236;40;20527;-59
2021/04/04 02:07:45;;;;;;;10.20;3.90;;;9.80;46.00;;;;;;1487465;39;20032;-59
2021/04/04 02:09:09;;;;;;;15.07;4.13;;;9.80;46.00;;;;;;1487521;39;20210;-58
2021/04/04 02:10:30;;;;;;;11.82;4.65;;;9.80;45.90;;;;;;1480992;40;20065;-61
2021/04/04 02:11:52;;;;;;;9.18;3.97;;;9.90;45.90;;;;;;1482373;40;20041;-59
2021/04/04 02:13:15;;;;;;;10.93;4.15;;;9.90;45.90;;;;;;1482590;40;20032;-59
2021/04/04 02:14:38;;;;;;;10.15;3.80;;;9.90;45.90;;;;;;1480716;40;20033;-59
2021/04/04 02:16:02;;;;;;;9.73;4.20;;;9.90;46.00;;;;;;1481851;40;20037;-59
2021/04/04 02:17:24;;;;;;;12.27;4.75;;;9.90;46.00;;;;;;1482620;40;20033;-60
2021/04/04 02:18:46;;;;;;;11.82;3.97;;;9.90;45.90;;;;;;1481629;40;20031;-62
2021/04/04 02:20:12;;;;;;;11.82;4.55;;;9.90;45.90;;;;;;1486785;40;20039;-60
2021/04/04 02:21:34;;;;;;;10.15;4.10;;;9.90;46.00;;;;;;1482101;39;20035;-59
2021/04/04 02:22:58;;;;;;;12.13;4.55;;;9.90;45.90;;;;;;1485401;40;20746;-60
2021/04/04 02:24:21;;;;;;;10.02;4.20;;;9.90;45.90;;;;;;1481921;40;20126;-60
2021/04/04 02:25:42;;;;;;;8.52;4.13;;;9.90;45.90;;;;;;1481255;39;20040;-61
2021/04/04 02:27:03;;;;;;;12.02;4.32;;;9.90;45.90;;;;;;1485416;40;20036;-60
2021/04/04 02:28:24;;;;;;;8.82;3.78;;;10.00;45.90;;;;;;1486380;40;20090;-60
2021/04/04 02:29:45;;;;;;;8.85;4.03;;;9.90;45.90;;;;;;1482462;40;20080;-59
2021/04/04 02:31:12;;;;;;;13.77;4.65;;;9.90;45.90;;;;;;1486692;39;20028;-60
2021/04/04 02:32:38;;;;;;;12.90;4.55;;;9.90;46.00;;;;;;1482119;40;20032;-59
2021/04/04 02:34:03;;;;;;;8.13;3.95;;;9.90;45.90;;;;;;1484239;39;20126;-60
2021/04/04 02:35:32;;;;;;;12.68;4.38;;;9.90;46.00;;;;;;1485939;40;20044;-59
2021/04/04 02:36:54;;;;;;;9.93;4.38;;;10.00;46.10;;;;;;1481965;40;20056;-58
2021/04/04 02:38:18;;;;;;;11.85;4.60;;;9.90;45.90;;;;;;1486613;40;20056;-60
2021/04/04 02:39:47;;;;;;;10.93;4.20;;;10.00;46.00;;;;;;1482970;40;20338;-60
2021/04/04 02:41:10;;;;;;;10.73;4.70;;;9.90;46.00;;;;;;1485894;40;20040;-60
2021/04/04 02:42:32;;;;;;;11.57;4.40;;;9.90;45.90;;;;;;1480706;40;20400;-60
2021/04/04 02:43:54;;;;;;;11.88;4.53;;;9.90;45.90;;;;;;1485332;40;20308;-60
2021/04/04 02:45:18;;;;;;;12.27;4.90;;;9.90;46.00;;;;;;1480888;40;20022;-61
2021/04/04 02:46:42;;;;;;;10.38;4.50;;;9.90;46.10;;;;;;1479947;40;20173;-59
2021/04/04 02:48:06;;;;;;;12.77;5.20;;;9.90;46.20;;;;;;1477936;40;20379;-60
2021/04/04 02:49:33;;;;;;;13.90;4.07;;;9.90;46.20;;;;;;1480737;40;20284;-61
2021/04/04 02:50:59;;;;;;;12.30;4.90;;;9.90;46.30;;;;;;1484265;39;20028;-60
2021/04/04 02:52:22;;;;;;;11.10;4.22;;;9.90;46.20;;;;;;1486537;40;20370;-60
2021/04/04 02:53:46;;;;;;;13.75;4.30;;;9.90;46.30;;;;;;1480426;40;20076;-59
2021/04/04 02:55:08;;;;;;;10.93;3.95;;;9.90;46.40;;;;;;1480990;40;20025;-59
2021/04/04 02:56:39;;;;;;;10.20;4.20;;;9.90;46.30;;;;;;1479838;40;20032;-59
2021/04/04 02:58:04;;;;;;;9.82;4.45;;;9.90;46.30;;;;;;1486500;40;20089;-61
2021/04/04 02:59:44;;;;;;;10.10;4.45;;;9.90;46.40;;;;;;1483399;40;20025;-60
2021/04/04 03:01:07;;;;;;;9.98;3.97;;;9.90;46.40;;;;;;1485130;40;20274;-61
2021/04/04 03:02:29;;;;;;;8.23;3.90;;;10.00;46.30;;;;;;1477684;40;20077;-60
2021/04/04 03:03:51;;;;;;;10.10;3.90;;;9.90;46.20;;;;;;1482394;39;20135;-61
2021/04/04 03:05:12;;;;;;;10.23;4.03;;;9.90;46.20;;;;;;1482403;40;20033;-60
2021/04/04 03:06:35;;;;;;;6.80;3.72;;;10.00;46.20;;;;;;1475621;40;20104;-60
2021/04/04 03:08:00;;;;;;;12.57;4.28;;;10.00;46.30;;;;;;1484497;40;20040;-60
2021/04/04 03:09:21;;;;;;;7.72;3.90;;;9.90;46.40;;;;;;1486240;40;20376;-61
2021/04/04 03:10:45;;;;;;;9.82;3.70;;;9.90;46.30;;;;;;1483905;40;20178;-60
2021/04/04 03:12:06;;;;;;;11.90;4.07;;;10.00;46.30;;;;;;1479384;40;20045;-60
2021/04/04 03:13:29;;;;;;;11.60;4.70;;;10.00;46.30;;;;;;1478939;40;20208;-61
2021/04/04 03:14:51;;;;;;;8.93;3.85;;;10.00;46.30;;;;;;1483949;40;20073;-60
2021/04/04 03:16:13;;;;;;;8.50;3.90;;;10.00;46.30;;;;;;1485413;40;20024;-60
2021/04/04 03:17:39;;;;;;;8.30;3.95;;;10.00;46.30;;;;;;1479810;40;20372;-60
2021/04/04 03:19:02;;;;;;;12.43;4.50;;;10.00;46.30;;;;;;1480906;40;20115;-59
2021/04/04 03:20:25;;;;;;;9.63;4.07;;;10.00;46.10;;;;;;1480582;40;20020;-59
2021/04/04 03:21:48;;;;;;;10.15;4.30;;;10.00;46.10;;;;;;1483736;39;20130;-60
2021/04/04 03:23:12;;;;;;;9.90;4.10;;;10.00;46.20;;;;;;1486604;40;20055;-59
2021/04/04 03:24:34;;;;;;;9.57;3.80;;;10.00;46.20;;;;;;1481312;40;20119;-59
2021/04/04 03:25:56;;;;;;;10.90;4.13;;;10.00;46.20;;;;;;1481920;40;20051;-59
2021/04/04 03:27:18;;;;;;;9.77;4.95;;;10.00;46.10;;;;;;1483199;40;20130;-59
2021/04/04 03:28:41;;;;;;;10.85;4.18;;;10.00;46.10;;;;;;1480552;40;20032;-59
2021/04/04 03:30:06;;;;;;;10.95;3.90;;;10.00;46.20;;;;;;1483428;40;20033;-59
2021/04/04 03:31:27;;;;;;;11.00;3.70;;;10.00;46.30;;;;;;1484089;40;20037;-59
2021/04/04 03:32:48;;;;;;;11.57;4.55;;;9.90;46.10;;;;;;1481801;40;20270;-59
2021/04/04 03:34:09;;;;;;;9.02;4.07;;;9.90;46.10;;;;;;1481727;40;20032;-60
2021/04/04 03:35:32;;;;;;;7.53;3.83;;;10.00;46.20;;;;;;1480185;40;20029;-59
2021/04/04 03:36:54;;;;;;;10.75;4.25;;;9.90;46.20;;;;;;1485282;40;20060;-60
2021/04/04 03:38:18;;;;;;;10.77;4.25;;;9.90;46.20;;;;;;1483814;40;20041;-60
2021/04/04 03:39:39;;;;;;;10.52;4.18;;;9.90;46.30;;;;;;1477602;40;20156;-60
2021/04/04 03:41:00;;;;;;;7.55;4.55;;;9.90;46.30;;;;;;1481690;40;20041;-59
2021/04/04 03:42:22;;;;;;;9.57;4.20;;;10.00;46.30;;;;;;1480407;40;20026;-59
2021/04/04 03:43:49;;;;;;;11.20;4.07;;;9.90;46.30;;;;;;1480073;40;20049;-59
2021/04/04 03:45:10;;;;;;;9.95;3.97;;;9.90;46.50;;;;;;1482753;40;20358;-60
2021/04/04 03:46:34;;;;;;;8.60;4.63;;;9.90;46.50;;;;;;1480239;40;20037;-60
2021/04/04 03:47:56;;;;;;;9.02;3.75;;;9.90;46.60;;;;;;1482105;40;20067;-60
2021/04/04 03:49:19;;;;;;;10.52;4.45;;;9.90;46.60;;;;;;1483008;40;20405;-59
2021/04/04 03:50:45;;;;;;;7.82;3.53;;;9.90;46.70;;;;;;1482710;40;20037;-59
2021/04/04 03:52:07;;;;;;;11.60;4.38;;;9.90;46.90;;;;;;1483115;40;20129;-59
2021/04/04 03:53:29;;;;;;;9.32;4.35;;;9.90;46.80;;;;;;1483717;40;20103;-60
2021/04/04 03:54:52;;;;;;;9.43;3.95;;;9.90;46.90;;;;;;1483330;40;20086;-59
2021/04/04 03:56:18;;;;;;;9.52;4.28;;;9.90;46.80;;;;;;1483054;40;20278;-59
2021/04/04 03:57:41;;;;;;;10.48;4.40;;;9.90;46.90;;;;;;1483521;40;20036;-59
2021/04/04 03:59:08;;;;;;;11.00;4.32;;;9.90;46.80;;;;;;1484664;40;20034;-59
2021/04/04 04:00:32;;;;;;;8.52;4.07;;;9.90;47.10;;;;;;1480863;40;20032;-59
2021/04/04 04:01:53;;;;;;;10.65;4.45;;;9.90;47.00;;;;;;1485788;40;20124;-60
2021/04/04 04:03:16;;;;;;;11.27;4.57;;;10.00;46.90;;;;;;1486649;40;20258;-59
2021/04/04 04:04:38;;;;;;;13.55;4.30;;;10.00;47.00;;;;;;1483275;40;20249;-60
2021/04/04 04:06:00;;;;;;;7.55;3.72;;;10.00;46.90;;;;;;1482382;40;20048;-59
2021/04/04 04:07:21;;;;;;;9.10;3.92;;;10.00;46.90;;;;;;1486665;40;20039;-60
2021/04/04 04:08:42;;;;;;;11.15;4.00;;;10.00;46.90;;;;;;1485884;40;20083;-59
2021/04/04 04:10:05;;;;;;;9.73;4.43;;;10.00;46.90;;;;;;1485398;40;20046;-60
2021/04/04 04:11:26;;;;;;;8.90;4.03;;;10.00;46.80;;;;;;1483387;40;20039;-60
2021/04/04 04:12:48;;;;;;;8.60;4.30;;;10.00;46.70;;;;;;1478272;40;20394;-59
2021/04/04 04:14:13;;;;;;;9.82;4.10;;;10.00;46.70;;;;;;1484411;40;20096;-59
2021/04/04 04:15:35;;;;;;;12.13;4.50;;;10.00;46.70;;;;;;1481209;40;20090;-59
2021/04/04 04:16:56;;;;;;;11.10;4.53;;;10.00;47.20;;;;;;1484728;40;20056;-59
2021/04/04 04:18:18;;;;;;;13.32;4.68;;;10.00;46.60;;;;;;1481806;40;20082;-59
2021/04/04 04:19:39;;;;;;;8.40;4.07;;;10.00;46.70;;;;;;1485506;40;20118;-58
2021/04/04 04:21:01;;;;;;;11.82;4.50;;;10.00;46.60;;;;;;1483428;40;20274;-59
2021/04/04 04:22:22;;;;;;;11.13;4.65;;;10.00;46.70;;;;;;1486515;39;20035;-60
2021/04/04 04:23:43;;;;;;;11.05;4.50;;;10.00;46.70;;;;;;1484217;39;20037;-59
2021/04/04 04:25:06;;;;;;;10.32;4.53;;;10.00;46.80;;;;;;1484756;40;20039;-60
2021/04/04 04:26:29;;;;;;;12.35;4.18;;;10.00;46.80;;;;;;1480132;40;20048;-59
2021/04/04 04:27:51;;;;;;;11.75;4.35;;;10.00;46.80;;;;;;1483047;40;20036;-60
2021/04/04 04:29:14;;;;;;;11.18;4.40;;;10.00;46.70;;;;;;1487124;40;20020;-59
2021/04/04 04:30:35;;;;;;;9.55;4.18;;;9.90;46.70;;;;;;1487023;40;20032;-60
2021/04/04 04:31:58;;;;;;;13.70;4.32;;;9.90;46.70;;;;;;1483369;40;20047;-59
2021/04/04 04:33:21;;;;;;;10.05;4.60;;;9.90;46.80;;;;;;1482812;39;20025;-59
2021/04/04 04:34:43;;;;;;;11.25;4.20;;;9.90;46.90;;;;;;1481471;39;20021;-59
2021/04/04 04:36:05;;;;;;;9.35;4.30;;;9.90;46.90;;;;;;1485612;40;20027;-59
2021/04/04 04:37:28;;;;;;;12.50;4.63;;;9.90;46.80;;;;;;1483271;40;20056;-60
2021/04/04 04:38:50;;;;;;;10.77;4.40;;;9.90;46.90;;;;;;1480507;40;20037;-59
2021/04/04 04:40:12;;;;;;;9.75;4.50;;;9.90;47.00;;;;;;1482450;40;20036;-60
2021/04/04 04:41:38;;;;;;;9.75;4.13;;;9.90;47.00;;;;;;1480711;40;20270;-60
2021/04/04 04:43:00;;;;;;;10.77;4.68;;;9.90;47.10;;;;;;1484120;40;20036;-60
2021/04/04 04:44:26;;;;;;;13.57;4.65;;;9.90;47.10;;;;;;1479900;40;20467;-59
2021/04/04 04:45:47;;;;;;;8.88;4.15;;;9.90;47.20;;;;;;1482244;40;20113;-59
2021/04/04 04:47:12;;;;;;;8.77;4.03;;;9.80;47.00;;;;;;1485355;40;20045;-59
2021/04/04 04:48:34;;;;;;;11.48;4.57;;;9.90;47.20;;;;;;1480652;40;20061;-59
2021/04/04 04:49:56;;;;;;;10.32;4.72;;;9.90;47.20;;;;;;1485948;39;20038;-59
2021/04/04 04:51:19;;;;;;;11.35;4.57;;;9.90;47.20;;;;;;1485724;40;20105;-60
2021/04/04 04:52:40;;;;;;;8.57;4.10;;;9.90;47.30;;;;;;1483776;40;20040;-59
2021/04/04 04:54:03;;;;;;;8.57;3.80;;;9.80;47.20;;;;;;1484600;40;20435;-60
2021/04/04 04:55:25;;;;;;;9.43;4.38;;;9.80;47.20;;;;;;1483101;40;20270;-60
2021/04/04 04:56:48;;;;;;;10.32;4.47;;;9.90;47.30;;;;;;1481540;40;20129;-59
2021/04/04 04:58:09;;;;;;;7.05;3.95;;;9.90;47.30;;;;;;1483544;40;20375;-60
2021/04/04 04:59:31;;;;;;;13.48;4.18;;;9.80;47.30;;;;;;1480941;40;20022;-59
2021/04/04 05:00:56;;;;;;;6.97;3.50;;;9.90;47.40;;;;;;1482695;40;20082;-59
2021/04/04 05:02:21;;;;;;;11.70;4.20;;;9.80;47.40;;;;;;1486389;40;20105;-59
2021/04/04 05:03:42;;;;;;;9.50;3.70;;;9.90;47.40;;;;;;1482262;40;20369;-59
2021/04/04 05:05:08;;;;;;;7.80;4.05;;;9.90;47.40;;;;;;1482937;40;20029;-60
2021/04/04 05:06:29;;;;;;;10.80;4.43;;;9.90;47.40;;;;;;1485027;40;20041;-60
2021/04/04 05:07:52;;;;;;;13.38;4.22;;;9.90;47.30;;;;;;1483785;40;20076;-59
2021/04/04 05:09:14;;;;;;;11.25;3.97;;;9.90;47.40;;;;;;1483941;40;20021;-60
2021/04/04 05:10:37;;;;;;;9.95;3.95;;;9.90;47.40;;;;;;1483389;40;20033;-60
2021/04/04 05:11:59;;;;;;;7.68;3.80;;;9.90;47.50;;;;;;1484895;40;20016;-59
2021/04/04 05:13:21;;;;;;;8.30;4.15;;;9.90;47.40;;;;;;1485627;40;20036;-59
2021/04/04 05:14:42;;;;;;;8.93;3.42;;;9.90;47.40;;;;;;1484091;40;20021;-60
2021/04/04 05:16:07;;;;;;;9.27;3.72;;;9.90;47.30;;;;;;1484076;40;20033;-60
2021/04/04 05:17:33;;;;;;;8.80;3.78;;;9.90;47.50;;;;;;1486879;40;20032;-59
2021/04/04 05:18:54;;;;;;;8.68;4.30;;;9.90;47.50;;;;;;1481343;40;20041;-59
2021/04/04 05:20:17;;;;;;;12.48;4.35;;;9.90;47.30;;;;;;1485885;39;20059;-59
2021/04/04 05:21:40;;;;;;;9.98;4.30;;;9.90;47.30;;;;;;1483509;40;20118;-59
2021/04/04 05:23:01;;;;;;;8.65;3.83;;;9.90;47.30;;;;;;1484026;40;20085;-60
2021/04/04 05:24:22;;;;;;;12.45;4.22;;;9.90;47.30;;;;;;1481957;39;20118;-60
2021/04/04 05:25:44;;;;;;;6.75;3.80;;;9.90;47.20;;;;;;1485832;39;20040;-59
2021/04/04 05:27:05;;;;;;;9.40;3.60;;;9.90;47.20;;;;;;1486361;40;20125;-59
2021/04/04 05:28:26;;;;;;;10.00;3.83;;;9.90;47.20;;;;;;1486477;40;20391;-59
2021/04/04 05:29:47;;;;;;;9.68;3.92;;;9.90;47.20;;;;;;1484751;39;20198;-60
2021/04/04 05:31:08;;;;;;;12.02;3.95;;;9.90;47.20;;;;;;1485067;40;20281;-60
2021/04/04 05:32:29;;;;;;;8.57;3.60;;;9.90;47.10;;;;;;1485978;40;20035;-60
2021/04/04 05:33:50;;;;;;;10.23;4.20;;;9.90;47.20;;;;;;1480918;40;20049;-60
2021/04/04 05:35:20;;;;;;;9.20;3.78;;;10.00;47.20;;;;;;1486598;40;20400;-59
2021/04/04 05:37:01;;;;;;;10.05;4.03;;;10.00;47.40;;;;;;1478549;40;20499;-60
2021/04/04 05:38:22;;;;;;;9.88;4.30;;;9.90;47.40;;;;;;1485207;40;20039;-59
2021/04/04 05:39:43;;;;;;;7.55;3.92;;;10.00;47.20;;;;;;1482445;40;20393;-60
2021/04/04 05:41:05;;;;;;;9.57;3.80;;;10.00;47.20;;;;;;1485961;40;20033;-59
2021/04/04 05:42:33;;;;;;;5.55;3.78;;;10.00;47.20;;;;;;1478767;40;20067;-59
2021/04/04 05:44:01;;;;;;;11.32;4.05;;;10.00;47.30;;;;;;1482757;39;20040;-59
2021/04/04 05:45:34;;;;;;;7.45;4.22;;;10.00;47.40;;;;;;1486523;40;20384;-59
2021/04/04 05:47:01;;;;;;;10.82;4.20;;;10.00;47.40;;;;;;1483695;40;20079;-59
2021/04/04 05:48:39;;;;;;;11.38;4.35;;;10.00;47.40;;;;;;1486698;40;20035;-59
2021/04/04 05:50:06;;;;;;;11.93;4.05;;;10.00;47.40;;;;;;1484479;40;20086;-59
2021/04/04 05:51:54;;;;;;;9.65;4.18;;;10.00;47.20;;;;;;1486018;40;20087;-60
2021/04/04 05:53:45;;;;;;;8.20;4.00;;;10.00;47.20;;;;;;1485020;40;20462;-59
2021/04/04 05:55:44;;;;;;;6.53;3.67;;;10.00;47.40;;;;;;1484692;39;20047;-59
2021/04/04 05:57:12;;;;;;;7.78;3.70;;;10.10;47.40;;;;;;1485780;40;20020;-60
2021/04/04 05:58:47;;;;;;;7.40;3.70;;;10.10;47.20;;;;;;1480563;40;20407;-59
2021/04/04 06:00:09;;;;;;;9.20;4.15;;;10.10;47.20;;;;;;1486044;40;20072;-59
2021/04/04 06:01:34;;;;;;;11.57;3.95;;;10.10;47.00;;;;;;1481626;40;20045;-60
2021/04/04 06:03:30;;;;;;;10.35;3.85;;;10.10;47.10;;;;;;1484183;40;20033;-59
2021/04/04 06:05:31;;;;;;;8.48;3.78;;;10.10;47.30;;;;;;1478490;40;20033;-59
2021/04/04 06:07:04;;;;;;;4.35;2.90;;;10.10;47.20;;;;;;1480697;40;20579;-59
2021/04/04 06:09:04;;;;;;;10.30;3.70;;;10.10;47.10;;;;;;1486891;40;20083;-60
2021/04/04 06:10:40;;;;;;;10.65;4.07;;;10.10;47.30;;;;;;1481692;40;20290;-59
2021/04/04 06:12:28;;;;;;;5.90;3.53;;;10.10;47.00;;;;;;1481095;40;20055;-60
2021/04/04 06:14:13;;;;;;;10.55;3.40;;;10.10;46.90;;;;;;1487223;39;20352;-59
2021/04/04 06:15:56;;;;;;;8.65;3.35;;;10.10;46.90;;;;;;1486205;40;20048;-60
2021/04/04 06:17:25;;;;;;;9.48;4.13;;;10.10;47.00;;;;;;1479774;40;20309;-59
2021/04/04 06:18:59;;;;;;;9.45;4.10;;;10.10;46.90;;;;;;1478540;40;20037;-59
2021/04/04 06:20:54;;;;;;;11.43;3.80;;;10.10;47.00;;;;;;1483574;40;20028;-59
2021/04/04 06:22:33;;;;;;;6.70;3.50;;;10.10;47.20;;;;;;1482424;40;20245;-60
2021/04/04 06:24:04;;;;;;;10.47;3.50;;;10.20;47.20;;;;;;1482811;40;20052;-60
2021/04/04 06:25:53;;;;;;;15.32;4.60;;;10.20;47.00;;;;;;1486435;40;20039;-60
2021/04/04 06:27:40;;;;;;;12.60;3.95;;;10.20;47.30;;;;;;1486341;39;20036;-60
2021/04/04 06:29:36;;;;;;;8.60;4.00;;;10.10;47.10;;;;;;1484980;40;20032;-60
2021/04/04 06:31:15;;;;;;;7.18;3.53;;;10.20;47.40;;;;;;1476428;40;20068;-60
2021/04/04 06:32:43;;;;;;;8.60;3.60;;;10.20;47.00;;;;;;1480603;40;20369;-60
2021/04/04 06:34:24;;;;;;;10.23;4.10;;;10.20;47.20;;;;;;1482380;40;20039;-60
2021/04/04 06:36:14;;;;;;;6.30;3.40;;;10.20;47.10;;;;;;1482450;40;20143;-60
2021/04/04 06:38:03;;;;;;;9.38;3.95;;;10.20;47.30;;;;;;1480089;40;20034;-60
2021/04/04 06:39:49;;;;;;;9.93;3.55;;;10.20;47.20;;;;;;1487329;39;20044;-58
2021/04/04 06:41:13;;;;;;;7.47;3.90;;;10.20;47.10;;;;;;1480647;40;20040;-60
2021/04/04 06:42:49;;;;;;;8.48;4.30;;;10.20;47.00;;;;;;1482463;40;20070;-60
2021/04/04 06:44:34;;;;;;;9.35;3.70;;;10.20;47.10;;;;;;1481749;40;20041;-60
2021/04/04 06:46:04;;;;;;;9.18;4.03;;;10.20;47.10;;;;;;1481532;40;20346;-60
2021/04/04 06:47:44;;;;;;;8.13;3.80;;;10.30;47.10;;;;;;1484282;40;20040;-60
2021/04/04 06:49:29;;;;;;;12.20;3.95;;;10.30;47.30;;;;;;1483474;39;20613;-60
2021/04/04 06:51:07;;;;;;;7.13;3.28;;;10.30;47.60;;;;;;1481171;40;20033;-60
2021/04/04 06:52:42;;;;;;;7.45;3.60;;;10.30;47.40;;;;;;1487147;40;20039;-60
2021/04/04 06:54:17;;;;;;;8.00;3.40;;;10.30;47.40;;;;;;1484873;40;20297;-60
2021/04/04 06:55:59;;;;;;;11.65;4.38;;;10.30;47.20;;;;;;1480650;40;20022;-60
2021/04/04 06:57:43;;;;;;;4.55;3.35;;;10.30;47.40;;;;;;1480552;40;20033;-60
2021/04/04 06:59:22;;;;;;;9.52;4.00;;;10.40;47.40;;;;;;1481778;40;20037;-60
2021/04/04 07:01:07;;;;;;;8.13;3.28;;;10.40;47.40;;;;;;1482990;40;20037;-60
2021/04/04 07:02:34;;;;;;;9.82;4.13;;;10.40;47.30;;;;;;1480110;40;20032;-60
2021/04/04 07:04:01;;;;;;;11.80;3.58;;;10.40;47.10;;;;;;1483056;40;20037;-60
2021/04/04 07:05:24;;;;;;;9.45;3.65;;;10.40;47.10;;;;;;1482894;40;20114;-61
2021/04/04 07:06:54;;;;;;;8.15;3.40;;;10.40;47.10;;;;;;1482017;40;20032;-61
2021/04/04 07:08:45;;;;;;;6.55;3.35;;;10.40;47.10;;;;;;1483150;40;20130;-61
2021/04/04 07:10:32;;;;;;;6.03;3.10;;;10.40;47.10;;;;;;1485841;39;20044;-58
2021/04/04 07:12:03;;;;;;;8.07;3.20;;;10.50;47.70;;;;;;1477150;40;20021;-60
2021/04/04 07:13:28;;;;;;;7.78;3.40;;;10.50;47.00;;;;;;1479564;40;20056;-60
2021/04/04 07:15:26;;;;;;;5.35;3.20;;;10.50;47.00;;;;;;1483488;39;20033;-60
2021/04/04 07:17:09;;;;;;;7.65;2.92;;;10.50;47.00;;;;;;1483016;40;20269;-61
2021/04/04 07:19:10;;;;;;;10.80;3.60;;;10.60;46.80;;;;;;1484221;40;20017;-60
2021/04/04 07:20:43;;;;;;;9.30;3.60;;;10.50;46.80;;;;;;1480833;40;20049;-60
2021/04/04 07:22:12;;;;;;;9.77;3.40;;;10.60;46.80;;;;;;1485742;40;20386;-60
2021/04/04 07:23:39;;;;;;;8.93;3.85;;;10.50;46.80;;;;;;1481202;39;20285;-60
2021/04/04 07:25:24;;;;;;;6.30;3.42;;;10.60;46.80;;;;;;1487387;40;20024;-60
2021/04/04 07:27:06;;;;;;;6.10;3.00;;;10.60;47.10;;;;;;1482708;40;20227;-60
2021/04/04 07:29:00;;;;;;;8.77;3.50;;;10.60;47.00;;;;;;1482903;40;20388;-60
2021/04/04 07:30:47;;;;;;;7.10;3.30;;;10.60;47.00;;;;;;1487353;40;20337;-60
2021/04/04 07:32:18;;;;;;;9.73;3.47;;;10.60;46.80;;;;;;1486176;40;20293;-60